Terminal Aerodrome Forecast
Issued by NWS

Home | Current Version | Previous Version | Text Only | Print | Product List | Glossary On
Versions: 1 2 3 4 5 6 7 8 9 10 11 12 13 14 15 16 17 18 19 20 21
000
FTUS43 KDLH 212200 AAA
TAFHYR
TAF AMD
KHYR 212202Z 2122/2218 16008KT 2SM -SN BR OVC010
      TEMPO 2122/2202 1/2SM SN OVC004
     FM220200 15009KT 1SM -DZSN BR OVC004
     FM220600 16008KT 3SM -DZSN BR OVC007=

USA.gov is the U.S. government's official web portal to all federal, state and local government web resources and services.